createdAt,value
2017-09-17T00:01:33.883Z,25.23
2017-09-17T00:04:01.347Z,29.10
2017-09-17T00:06:28.839Z,56.17
2017-09-17T00:08:57.132Z,26.50
2017-09-17T00:11:25.359Z,23.93
2017-09-17T00:13:52.835Z,36.90
2017-09-17T00:16:20.312Z,39.27
2017-09-17T00:18:47.819Z,39.13
2017-09-17T00:21:15.285Z,24.90
2017-09-17T00:23:42.754Z,31.17
2017-09-17T00:26:10.217Z,28.57
2017-09-17T00:28:37.678Z,47.03
2017-09-17T00:31:05.523Z,48.90
2017-09-17T00:33:32.991Z,42.70
2017-09-17T00:36:00.472Z,42.30
2017-09-17T00:38:27.932Z,47.63
2017-09-17T00:40:55.396Z,31.43
2017-09-17T00:43:23.640Z,38.40
2017-09-17T00:45:51.949Z,37.53
2017-09-17T00:48:20.192Z,43.30
2017-09-17T00:50:47.688Z,29.33
2017-09-17T00:53:15.912Z,63.73
2017-09-17T00:55:43.424Z,47.20
2017-09-17T00:58:11.647Z,40.30
2017-09-17T01:00:39.112Z,49.30
2017-09-17T01:03:07.304Z,48.37
2017-09-17T01:05:34.773Z,39.13
2017-09-17T01:08:03.000Z,39.43
2017-09-17T01:10:30.455Z,43.73
2017-09-17T01:12:58.340Z,50.80
2017-09-17T01:15:25.799Z,37.37
2017-09-17T01:17:54.296Z,64.17
2017-09-17T01:20:21.772Z,54.30
2017-09-17T01:22:49.994Z,30.23
2017-09-17T01:25:18.096Z,25.53
2017-09-17T01:27:46.078Z,27.90
2017-09-17T01:30:13.535Z,33.90
2017-09-17T01:32:41.758Z,40.67
2017-09-17T01:35:09.239Z,43.93
2017-09-17T01:37:36.870Z,37.63
2017-09-17T01:40:04.384Z,67.60
2017-09-17T01:42:31.855Z,184.60
2017-09-17T01:45:00.102Z,98.13
2017-09-17T01:47:27.568Z,39.10
2017-09-17T01:49:55.043Z,36.00
2017-09-17T01:52:23.294Z,58.47
2017-09-17T01:54:50.755Z,27.13
2017-09-17T01:57:18.228Z,19.83
2017-09-17T01:59:46.466Z,145.67
2017-09-17T02:02:13.951Z,59.40
2017-09-17T02:04:42.212Z,38.80
2017-09-17T02:07:09.670Z,62.90
2017-09-17T02:09:37.301Z,23.93
2017-09-17T02:12:04.783Z,30.47
2017-09-17T02:14:32.238Z,25.97
2017-09-17T02:16:59.704Z,31.50
2017-09-17T02:19:27.192Z,15.90
2017-09-17T02:21:55.431Z,61.50
2017-09-17T02:24:23.659Z,65.43
2017-09-17T02:26:51.163Z,26.97
2017-09-17T02:29:19.351Z,20.37
2017-09-17T02:31:46.835Z,62.17
2017-09-17T02:34:15.069Z,81.30
2017-09-17T02:36:42.526Z,58.03
2017-09-17T02:39:09.982Z,76.00
2017-09-17T02:41:37.548Z,82.37
2017-09-17T02:44:05.095Z,15.33
2017-09-17T02:46:32.582Z,29.87
2017-09-17T02:49:00.839Z,38.33
2017-09-17T02:51:28.295Z,70.43
2017-09-17T02:53:55.858Z,14.23
2017-09-17T02:56:23.370Z,45.80
2017-09-17T02:58:50.846Z,24.50
2017-09-17T03:01:18.309Z,30.63
2017-09-17T03:03:45.783Z,50.73
2017-09-17T03:06:13.241Z,25.20
2017-09-17T03:08:40.703Z,12.30
2017-09-17T03:11:08.942Z,46.77
2017-09-17T03:13:36.420Z,25.87
2017-09-17T03:16:03.875Z,26.90
2017-09-17T03:18:31.343Z,28.17
2017-09-17T03:20:59.618Z,15.10
2017-09-17T03:23:27.846Z,11.73
2017-09-17T03:25:55.343Z,14.73
2017-09-17T03:28:23.615Z,23.10
2017-09-17T03:30:53.160Z,38.13
2017-09-17T03:33:20.635Z,31.53
2017-09-17T03:35:48.095Z,15.87
2017-09-17T03:38:15.566Z,18.40
2017-09-17T03:40:43.035Z,17.93
2017-09-17T03:43:10.497Z,17.27
2017-09-17T03:45:39.468Z,20.37
2017-09-17T03:48:06.963Z,28.87
2017-09-17T03:50:34.428Z,23.50
2017-09-17T03:53:02.652Z,28.73
2017-09-17T03:55:30.138Z,15.70
2017-09-17T03:57:57.603Z,23.03
2017-09-17T04:00:26.591Z,19.67
2017-09-17T04:02:54.866Z,21.20
2017-09-17T04:05:22.321Z,13.63
2017-09-17T04:07:50.579Z,17.60
2017-09-17T04:10:18.048Z,21.40
2017-09-17T04:12:46.292Z,23.03
2017-09-17T04:15:13.749Z,23.67
2017-09-17T04:17:41.727Z,18.10
2017-09-17T04:20:09.183Z,21.07
2017-09-17T04:22:36.638Z,23.30
2017-09-17T04:25:04.158Z,16.37
2017-09-17T04:27:31.630Z,15.20
2017-09-17T04:29:59.152Z,21.80
2017-09-17T04:32:26.695Z,24.30
2017-09-17T04:34:54.932Z,26.40
2017-09-17T04:37:22.387Z,14.73
2017-09-17T04:39:49.860Z,20.10
2017-09-17T04:42:17.951Z,13.40
2017-09-17T04:44:46.231Z,16.60
2017-09-17T04:47:13.702Z,16.23
2017-09-17T04:49:41.205Z,18.60
2017-09-17T04:52:08.662Z,27.80
2017-09-17T04:54:36.132Z,17.60
2017-09-17T04:57:03.604Z,11.90
2017-09-17T04:59:31.064Z,25.30
2017-09-17T05:01:58.635Z,26.03
2017-09-17T05:04:26.199Z,29.53
2017-09-17T05:06:53.654Z,23.93
2017-09-17T05:09:21.119Z,34.70
2017-09-17T05:11:49.346Z,32.90
2017-09-17T05:14:16.794Z,38.20
2017-09-17T05:16:44.276Z,29.90
2017-09-17T05:19:11.755Z,34.40
2017-09-17T05:21:39.207Z,29.87
2017-09-17T05:24:06.679Z,31.07
2017-09-17T05:26:34.911Z,66.77
2017-09-17T05:29:02.392Z,60.37
2017-09-17T05:31:29.855Z,70.87
2017-09-17T05:33:57.314Z,89.83
2017-09-17T05:36:25.539Z,55.47
2017-09-17T05:38:53.020Z,28.23
2017-09-17T05:41:20.491Z,41.50
2017-09-17T05:43:48.736Z,23.20
2017-09-17T05:46:16.200Z,23.07
2017-09-17T05:48:43.671Z,33.10
2017-09-17T05:51:11.143Z,33.13
2017-09-17T05:53:38.613Z,28.67
2017-09-17T05:56:06.839Z,28.03
2017-09-17T05:58:34.312Z,38.60
2017-09-17T06:01:01.792Z,43.57
2017-09-17T06:03:29.256Z,62.30
2017-09-17T06:05:57.496Z,55.10
2017-09-17T06:08:24.994Z,33.60
2017-09-17T06:10:53.216Z,29.83
2017-09-17T06:13:20.670Z,24.70
2017-09-17T06:15:48.149Z,74.30
2017-09-17T06:18:15.603Z,85.50
2017-09-17T06:20:43.058Z,60.57
2017-09-17T06:23:10.541Z,69.30
2017-09-17T06:25:38.007Z,52.90
2017-09-17T06:28:06.248Z,49.73
2017-09-17T06:30:33.712Z,33.20
2017-09-17T06:33:01.183Z,49.47
2017-09-17T06:35:28.652Z,61.60
2017-09-17T06:37:56.907Z,48.10
2017-09-17T06:40:24.392Z,52.63
2017-09-17T06:42:52.678Z,77.10
2017-09-17T06:45:20.930Z,50.13
2017-09-17T06:47:48.476Z,61.40
2017-09-17T06:50:16.035Z,56.93
2017-09-17T06:52:43.507Z,87.63
2017-09-17T06:55:11.771Z,89.73
2017-09-17T06:57:39.244Z,46.60
2017-09-17T07:00:07.500Z,62.53
2017-09-17T07:02:34.986Z,93.37
2017-09-17T07:05:06.219Z,49.33
2017-09-17T07:07:34.470Z,70.90
2017-09-17T07:10:01.932Z,48.77
2017-09-17T07:12:29.496Z,82.83
2017-09-17T07:14:57.059Z,83.07
2017-09-17T07:17:24.573Z,58.13
2017-09-17T07:19:52.027Z,45.00
2017-09-17T07:22:19.865Z,72.07
2017-09-17T07:24:47.358Z,57.33
2017-09-17T07:27:14.873Z,73.53
2017-09-17T07:29:43.129Z,75.60
2017-09-17T07:32:10.592Z,52.33
2017-09-17T07:34:40.100Z,64.43
2017-09-17T07:37:08.330Z,58.43
2017-09-17T07:39:35.823Z,44.27
2017-09-17T07:42:03.302Z,45.80
2017-09-17T07:44:32.432Z,51.13
2017-09-17T07:46:59.895Z,68.93
2017-09-17T07:49:27.388Z,56.83
2017-09-17T07:51:54.891Z,51.13
2017-09-17T07:54:22.402Z,48.77
2017-09-17T07:56:49.959Z,52.07
2017-09-17T07:59:17.423Z,45.47
2017-09-17T08:01:45.708Z,49.17
2017-09-17T08:04:13.963Z,44.67
2017-09-17T08:06:42.243Z,50.13
2017-09-17T08:09:09.716Z,45.17
2017-09-17T08:11:38.504Z,43.53
2017-09-17T08:14:06.750Z,43.53
2017-09-17T08:18:57.267Z,47.27
2017-09-17T08:21:25.503Z,39.50
2017-09-17T08:23:52.971Z,47.10
2017-09-17T08:26:20.446Z,43.30
2017-09-17T08:28:47.920Z,43.60
2017-09-17T08:31:15.384Z,39.13
2017-09-17T08:33:43.634Z,43.00
2017-09-17T08:36:11.107Z,40.30
2017-09-17T08:38:38.576Z,38.00
2017-09-17T08:41:06.859Z,43.13
2017-09-17T08:43:35.111Z,37.73
2017-09-17T08:46:02.584Z,37.40
2017-09-17T08:48:30.835Z,38.57
2017-09-17T08:50:58.299Z,35.97
2017-09-17T08:53:29.434Z,34.10
2017-09-17T08:55:57.092Z,33.40
2017-09-17T08:58:24.567Z,35.63
2017-09-17T09:00:55.690Z,31.50
2017-09-17T09:03:23.980Z,29.17
2017-09-17T09:05:51.572Z,26.87
2017-09-17T09:08:19.047Z,29.50
2017-09-17T09:10:46.511Z,32.23
2017-09-17T09:13:13.988Z,29.20
2017-09-17T09:15:42.187Z,30.90
2017-09-17T09:18:09.660Z,31.87
2017-09-17T09:20:38.411Z,28.17
2017-09-17T09:23:05.916Z,27.60
2017-09-17T09:25:33.403Z,28.73
2017-09-17T09:28:01.316Z,23.87
2017-09-17T09:30:29.553Z,26.87
2017-09-17T09:32:57.398Z,25.50
2017-09-17T09:35:24.869Z,29.07
2017-09-17T09:37:53.184Z,25.43
2017-09-17T09:40:21.383Z,29.27
2017-09-17T09:42:49.613Z,30.57
2017-09-17T09:45:17.087Z,30.30
2017-09-17T09:47:44.561Z,23.80
2017-09-17T09:50:12.821Z,27.00
2017-09-17T09:52:40.295Z,31.63
2017-09-17T09:55:08.531Z,28.90
2017-09-17T09:57:36.102Z,31.30
2017-09-17T10:00:03.618Z,25.10
2017-09-17T10:02:31.131Z,27.30
2017-09-17T10:04:58.605Z,26.03
2017-09-17T10:07:26.844Z,23.60
2017-09-17T10:09:54.631Z,24.93
2017-09-17T10:12:22.870Z,25.57
2017-09-17T10:14:50.447Z,23.30
2017-09-17T10:17:18.360Z,27.27
2017-09-17T10:19:45.835Z,26.37
2017-09-17T10:22:13.320Z,21.00
2017-09-17T10:24:42.157Z,24.90
2017-09-17T10:27:09.634Z,23.20
2017-09-17T10:29:37.114Z,19.03
2017-09-17T10:32:04.696Z,21.33
2017-09-17T10:34:32.171Z,23.10
2017-09-17T10:37:00.431Z,21.30
2017-09-17T10:39:27.891Z,20.00
2017-09-17T10:41:55.451Z,24.97
2017-09-17T10:44:23.019Z,22.63
2017-09-17T10:46:51.264Z,18.47
2017-09-17T10:49:18.839Z,16.50
2017-09-17T10:51:46.308Z,16.80
2017-09-17T10:54:14.584Z,13.83
2017-09-17T10:56:42.852Z,15.90
2017-09-17T10:59:10.350Z,18.87
2017-09-17T11:01:38.731Z,16.90
2017-09-17T11:04:06.240Z,16.13
2017-09-17T11:06:33.792Z,13.13
2017-09-17T11:09:01.267Z,17.17
2017-09-17T11:11:29.507Z,12.90
2017-09-17T11:13:56.987Z,13.80
2017-09-17T11:16:24.447Z,10.60
2017-09-17T11:18:51.924Z,12.30
2017-09-17T11:21:20.163Z,11.93
2017-09-17T11:23:47.612Z,7.80
2017-09-17T11:26:15.093Z,8.90
2017-09-17T11:28:42.642Z,7.40
2017-09-17T11:31:10.107Z,7.27
2017-09-17T11:33:38.079Z,10.43
2017-09-17T11:36:05.531Z,9.40
2017-09-17T11:38:33.760Z,5.87
2017-09-17T11:41:01.566Z,5.00
2017-09-17T11:43:29.145Z,6.33
2017-09-17T11:45:57.403Z,5.63
2017-09-17T11:48:24.916Z,7.33
2017-09-17T11:50:52.420Z,9.77
2017-09-17T11:53:19.898Z,7.57
2017-09-17T11:55:48.139Z,6.57
2017-09-17T11:58:16.364Z,9.70
2017-09-17T12:00:43.843Z,7.97
2017-09-17T12:03:11.336Z,8.13
2017-09-17T12:05:38.801Z,9.30
2017-09-17T12:08:06.260Z,13.23
2017-09-17T12:10:34.520Z,6.50
2017-09-17T12:13:01.992Z,6.30
2017-09-17T12:15:30.970Z,7.40
2017-09-17T12:17:58.430Z,8.17
2017-09-17T12:20:25.887Z,9.03
2017-09-17T12:22:53.386Z,7.40
2017-09-17T12:25:20.863Z,7.60
2017-09-17T12:27:48.364Z,7.17
2017-09-17T12:30:15.829Z,7.73
2017-09-17T12:32:44.240Z,11.53
2017-09-17T12:35:11.708Z,9.70
2017-09-17T12:37:40.041Z,8.10
2017-09-17T12:40:08.612Z,5.50
2017-09-17T12:42:36.183Z,5.70
2017-09-17T12:45:03.634Z,6.37
2017-09-17T12:47:31.396Z,3.00
2017-09-17T12:49:59.660Z,2.70
2017-09-17T12:52:27.123Z,4.50
2017-09-17T12:54:54.588Z,3.83
2017-09-17T12:57:22.046Z,3.93
2017-09-17T12:59:49.513Z,3.83
2017-09-17T13:02:17.800Z,3.37
2017-09-17T13:04:45.335Z,4.80
2017-09-17T13:07:13.559Z,3.57
2017-09-17T13:09:41.027Z,2.47
2017-09-17T13:12:08.492Z,2.93
2017-09-17T13:14:35.949Z,2.10
2017-09-17T13:17:03.523Z,2.30
2017-09-17T13:19:30.989Z,3.87
2017-09-17T13:21:58.449Z,2.10
2017-09-17T13:24:25.915Z,2.20
2017-09-17T13:26:54.138Z,2.13
2017-09-17T13:29:21.600Z,1.93
2017-09-17T13:31:49.078Z,3.23
2017-09-17T13:34:16.546Z,2.67
2017-09-17T13:36:44.105Z,2.50
2017-09-17T13:39:12.204Z,2.90
2017-09-17T13:41:39.662Z,2.40
2017-09-17T13:44:07.119Z,2.47
2017-09-17T13:46:34.947Z,5.30
2017-09-17T13:49:02.416Z,3.53
2017-09-17T13:51:30.644Z,2.73
2017-09-17T13:53:58.350Z,4.13
2017-09-17T13:56:25.804Z,3.20
2017-09-17T13:58:53.287Z,7.03
2017-09-17T14:01:35.963Z,3.70
2017-09-17T14:04:05.733Z,3.63
2017-09-17T14:06:35.675Z,3.30
2017-09-17T14:09:03.131Z,4.43
2017-09-17T14:11:30.607Z,5.30
2017-09-17T14:13:58.063Z,5.37
2017-09-17T14:16:25.523Z,4.63
2017-09-17T14:18:52.994Z,5.07
2017-09-17T14:21:21.224Z,6.50
2017-09-17T14:23:49.260Z,6.83
2017-09-17T14:26:17.581Z,6.83
2017-09-17T14:28:45.548Z,3.40
2017-09-17T14:31:13.003Z,4.30
2017-09-17T14:33:40.491Z,4.80
2017-09-17T14:36:08.717Z,4.10
2017-09-17T14:38:36.231Z,3.03
2017-09-17T14:41:04.468Z,3.20
2017-09-17T14:43:32.473Z,3.10
2017-09-17T14:46:00.716Z,4.60
2017-09-17T14:48:28.283Z,3.20
2017-09-17T14:50:55.752Z,2.67
2017-09-17T14:53:23.214Z,2.87
2017-09-17T14:55:51.459Z,2.70
2017-09-17T14:58:18.916Z,2.80
2017-09-17T15:00:46.371Z,4.03
2017-09-17T15:03:13.858Z,1.93
2017-09-17T15:05:41.413Z,2.40
2017-09-17T15:08:08.871Z,2.50
2017-09-17T15:10:36.419Z,2.20
2017-09-17T15:13:03.884Z,7.13
2017-09-17T15:15:31.359Z,2.07
2017-09-17T15:17:59.602Z,1.67
2017-09-17T15:20:27.075Z,2.73
2017-09-17T15:22:54.532Z,2.13
2017-09-17T15:25:22.008Z,2.30
2017-09-17T15:27:50.242Z,1.73
2017-09-17T15:30:17.708Z,2.67
2017-09-17T15:32:45.239Z,2.20
2017-09-17T15:35:12.687Z,2.70
2017-09-17T15:37:40.296Z,2.77
2017-09-17T15:40:07.747Z,2.50
2017-09-17T15:42:35.203Z,4.37
2017-09-17T15:45:03.139Z,2.60
2017-09-17T15:47:30.635Z,2.40
2017-09-17T15:49:58.111Z,2.77
2017-09-17T15:52:25.595Z,3.13
2017-09-17T15:54:53.053Z,6.70
2017-09-17T15:57:20.559Z,2.40
2017-09-17T15:59:48.033Z,2.43
2017-09-17T16:02:16.293Z,2.30
2017-09-17T16:04:43.903Z,2.23
2017-09-17T16:07:11.367Z,4.73
2017-09-17T16:09:38.843Z,3.40
2017-09-17T16:12:06.321Z,2.23
2017-09-17T16:14:33.800Z,3.17
2017-09-17T16:17:02.047Z,2.93
2017-09-17T16:19:29.870Z,1.23
2017-09-17T16:21:57.363Z,1.33
2017-09-17T16:24:24.832Z,1.20
2017-09-17T16:26:52.588Z,2.87
2017-09-17T16:29:20.049Z,1.10
2017-09-17T16:31:47.515Z,2.20
2017-09-17T16:34:15.835Z,1.67
2017-09-17T16:36:43.296Z,2.57
2017-09-17T16:39:10.795Z,2.73
2017-09-17T16:41:38.267Z,2.57
2017-09-17T16:44:06.497Z,3.53
2017-09-17T16:46:33.968Z,6.93
2017-09-17T16:49:01.437Z,3.97
2017-09-17T16:51:28.912Z,5.70
2017-09-17T16:53:56.663Z,3.40
2017-09-17T16:56:24.216Z,3.47
2017-09-17T16:58:51.681Z,5.70
2017-09-17T17:01:19.150Z,4.87
2017-09-17T17:03:46.641Z,3.70
2017-09-17T17:06:14.103Z,3.10
2017-09-17T17:08:41.585Z,3.47
2017-09-17T17:11:09.043Z,5.77
2017-09-17T17:13:36.520Z,4.90
2017-09-17T17:16:04.014Z,3.57
2017-09-17T17:18:31.465Z,4.77
2017-09-17T17:20:58.928Z,7.83
2017-09-17T17:23:28.086Z,6.03
2017-09-17T17:25:55.539Z,5.73
2017-09-17T17:28:23.008Z,3.87
2017-09-17T17:30:51.256Z,8.60
2017-09-17T17:33:18.711Z,8.30
2017-09-17T17:35:46.201Z,4.40
2017-09-17T17:38:14.511Z,4.00
2017-09-17T17:40:42.018Z,6.40
2017-09-17T17:43:09.760Z,4.97
2017-09-17T17:45:37.217Z,4.60
2017-09-17T17:48:04.669Z,4.43
2017-09-17T17:50:32.264Z,4.50
2017-09-17T17:53:00.496Z,4.30
2017-09-17T17:55:28.038Z,4.27
2017-09-17T17:57:55.501Z,4.33
2017-09-17T18:00:22.972Z,4.30
2017-09-17T18:02:50.440Z,6.93
2017-09-17T18:05:17.916Z,4.37
2017-09-17T18:07:45.380Z,5.40
2017-09-17T18:10:13.628Z,5.67
2017-09-17T18:12:41.087Z,5.33
2017-09-17T18:15:08.560Z,4.43
2017-09-17T18:17:36.029Z,3.90
2017-09-17T18:20:04.252Z,5.33
2017-09-17T18:22:31.739Z,5.33
2017-09-17T18:24:59.207Z,5.33
2017-09-17T18:27:26.949Z,7.37
2017-09-17T18:29:54.529Z,9.00
2017-09-17T18:32:22.211Z,8.07
2017-09-17T18:34:50.464Z,5.30
2017-09-17T18:37:17.940Z,5.60
2017-09-17T18:39:46.203Z,8.03
2017-09-17T18:42:14.432Z,8.50
2017-09-17T18:44:41.904Z,6.90
2017-09-17T18:47:09.489Z,8.13
2017-09-17T18:49:37.721Z,8.07
2017-09-17T18:52:05.183Z,8.23
2017-09-17T18:54:32.680Z,9.17
2017-09-17T18:57:00.196Z,12.73
2017-09-17T18:59:27.672Z,7.60
2017-09-17T19:01:55.140Z,7.33
2017-09-17T19:04:23.379Z,8.07
2017-09-17T19:06:50.898Z,7.47
2017-09-17T19:09:19.156Z,9.07
2017-09-17T19:11:47.748Z,8.90
2017-09-17T19:14:16.062Z,10.27
2017-09-17T19:16:43.531Z,8.20
2017-09-17T19:19:11.004Z,8.13
2017-09-17T19:21:38.476Z,8.97
2017-09-17T19:24:05.943Z,8.43
2017-09-17T19:26:33.713Z,10.00
2017-09-17T19:29:01.387Z,10.03
2017-09-17T19:31:29.637Z,10.53
2017-09-17T19:33:57.131Z,9.40
2017-09-17T19:36:24.588Z,8.57
2017-09-17T19:38:52.195Z,8.87
2017-09-17T19:41:20.077Z,9.93
2017-09-17T19:43:47.635Z,10.27
2017-09-17T19:46:15.200Z,10.93
2017-09-17T19:48:42.965Z,10.23
2017-09-17T19:51:10.521Z,11.73
2017-09-17T19:53:38.408Z,12.90
2017-09-17T19:56:07.172Z,11.10
2017-09-17T19:58:35.413Z,17.60
2017-09-17T20:01:02.875Z,11.77
2017-09-17T20:03:31.189Z,11.03
2017-09-17T20:05:59.422Z,10.30
2017-09-17T20:08:26.925Z,23.70
2017-09-17T20:10:55.228Z,13.60
2017-09-17T20:13:22.701Z,13.53
2017-09-17T20:15:50.176Z,12.67
2017-09-17T20:18:17.923Z,15.63
2017-09-17T20:20:46.149Z,12.13
2017-09-17T20:23:13.718Z,16.53
2017-09-17T20:25:42.249Z,14.50
2017-09-17T20:28:09.841Z,10.60
2017-09-17T20:30:37.643Z,12.90
2017-09-17T20:33:05.133Z,8.03
2017-09-17T20:35:32.579Z,9.30
2017-09-17T20:38:00.062Z,6.87
2017-09-17T20:40:27.549Z,9.10
2017-09-17T20:42:55.809Z,9.30
2017-09-17T20:45:23.359Z,7.40
2017-09-17T20:47:51.645Z,9.57
2017-09-17T20:50:19.248Z,13.43
2017-09-17T20:52:46.756Z,8.43
2017-09-17T20:55:14.530Z,7.47
2017-09-17T20:57:42.763Z,6.63
2017-09-17T21:00:10.320Z,6.43
2017-09-17T21:02:38.800Z,7.40
2017-09-17T21:05:06.269Z,7.87
2017-09-17T21:07:33.737Z,8.47
2017-09-17T21:10:01.195Z,3.77
2017-09-17T21:12:28.660Z,3.97
2017-09-17T21:14:56.140Z,3.67
2017-09-17T21:25:04.400Z,3.87
2017-09-17T21:27:31.881Z,4.13
2017-09-17T21:30:00.106Z,3.90
2017-09-17T21:32:27.588Z,3.07
2017-09-17T21:34:55.055Z,2.90
2017-09-17T21:37:22.511Z,3.00
2017-09-17T21:39:49.987Z,5.20
2017-09-17T21:42:18.251Z,3.90
2017-09-17T21:44:46.512Z,3.07
2017-09-17T21:47:13.971Z,1.93
2017-09-17T21:49:41.440Z,2.93
2017-09-17T21:52:09.669Z,2.17
2017-09-17T21:54:37.144Z,3.20
2017-09-17T21:57:04.618Z,2.60
2017-09-17T21:59:32.088Z,2.40
2017-09-17T22:02:00.324Z,3.37
2017-09-17T22:04:27.810Z,2.07
2017-09-17T22:06:55.283Z,1.87
2017-09-17T22:09:23.512Z,1.93
2017-09-17T22:11:50.980Z,2.20
2017-09-17T22:14:18.452Z,6.83
2017-09-17T22:16:45.916Z,2.83
2017-09-17T22:19:14.159Z,1.80
2017-09-17T22:21:41.635Z,1.33
2017-09-17T22:24:09.192Z,3.87
2017-09-17T22:26:36.648Z,2.97
2017-09-17T22:29:04.115Z,1.63
2017-09-17T22:31:31.587Z,1.57
2017-09-17T22:33:59.840Z,1.97
2017-09-17T22:36:27.928Z,2.20
2017-09-17T22:38:56.167Z,2.20
2017-09-17T22:41:23.743Z,1.80
2017-09-17T22:43:51.226Z,1.17
2017-09-17T22:46:19.476Z,2.60
2017-09-17T22:48:46.944Z,2.03
2017-09-17T22:51:15.185Z,4.43
2017-09-17T22:53:42.656Z,4.10
2017-09-17T22:56:10.116Z,3.77
2017-09-17T22:58:37.683Z,3.90
2017-09-17T23:01:05.244Z,3.43
2017-09-17T23:03:32.720Z,2.27
2017-09-17T23:06:00.968Z,1.60
2017-09-17T23:08:28.431Z,2.53
2017-09-17T23:10:55.984Z,1.50
2017-09-17T23:13:23.452Z,2.30
2017-09-17T23:15:51.003Z,1.80
2017-09-17T23:18:19.412Z,1.90
2017-09-17T23:20:46.883Z,2.13
2017-09-17T23:23:14.412Z,1.70
2017-09-17T23:25:42.643Z,5.50
2017-09-17T23:28:10.123Z,4.10
2017-09-17T23:30:38.239Z,3.90
2017-09-17T23:33:05.695Z,3.43
2017-09-17T23:35:33.213Z,2.90
2017-09-17T23:38:00.775Z,2.90
2017-09-17T23:40:28.244Z,3.47
2017-09-17T23:42:56.499Z,3.53
2017-09-17T23:45:23.964Z,5.13
2017-09-17T23:47:52.239Z,3.90
2017-09-17T23:50:19.696Z,5.23
2017-09-17T23:52:47.155Z,5.37
2017-09-17T23:55:15.388Z,6.10
2017-09-17T23:57:42.860Z,6.33
